Time;durP1;ratioP1;P1;durP2;ratioP2;P2;SDS_P1;SDS_P2;PMS_P1;PMS_P2;Temp;Humidity;BMP_temperature;BMP_pressure;BME280_temperature;BME280_humidity;BME280_pressure;Samples;Min_cycle;Max_cycle;Signal;HPM_P1;HPM_P2
2022/02/22 00:01:04;;;;;;;;;13.75;8.25;;;;;7.99;88.02;101486.00;4917944;28;45347;-68
2022/02/22 00:03:31;;;;;;;;;19.00;9.25;;;;;7.95;89.16;101476.44;4917480;28;46219;-61
2022/02/22 00:05:56;;;;;;;;;15.75;8.75;;;;;7.95;89.33;101475.56;4916411;28;45347;-71
2022/02/22 00:08:21;;;;;;;;;14.00;8.50;;;;;7.93;89.53;101473.00;4917566;28;45188;-70
2022/02/22 00:10:47;;;;;;;;;14.50;10.75;;;;;7.91;89.68;101480.00;4918246;28;45373;-67
2022/02/22 00:13:12;;;;;;;;;15.50;9.50;;;;;7.88;89.71;101472.19;4916125;28;47040;-68
2022/02/22 00:15:38;;;;;;;;;16.50;8.75;;;;;7.85;89.39;101480.94;4917632;28;45394;-68
2022/02/22 00:18:03;;;;;;;;;15.50;10.50;;;;;7.81;89.65;101474.00;4917505;28;45311;-65
2022/02/22 00:20:28;;;;;;;;;14.50;8.50;;;;;7.79;90.37;101482.81;4917733;28;45269;-68
2022/02/22 00:22:54;;;;;;;;;21.50;9.75;;;;;7.75;90.58;101480.22;4917311;28;46445;-67
2022/02/22 00:25:19;;;;;;;;;16.25;10.00;;;;;7.74;90.65;101488.97;4917938;28;45739;-59
2022/02/22 00:27:45;;;;;;;;;17.75;9.25;;;;;7.74;90.86;101477.63;4937184;28;45462;-71
2022/02/22 00:30:12;;;;;;;;;17.75;9.50;;;;;7.69;91.21;101480.31;4924437;28;45380;-71
2022/02/22 00:32:39;;;;;;;;;15.00;11.50;;;;;7.70;90.97;101489.91;4923672;28;45623;-66
2022/02/22 00:35:14;;;;;;;;;16.50;8.00;;;;;7.66;90.97;101474.22;4922368;28;45379;-62
2022/02/22 00:37:41;;;;;;;;;21.25;10.75;;;;;7.65;91.53;101491.72;4924171;28;45379;-65
2022/02/22 00:40:08;;;;;;;;;15.50;11.75;;;;;7.62;90.82;101491.75;4924017;28;45516;-61
2022/02/22 00:42:33;;;;;;;;;20.75;11.00;;;;;7.60;91.26;101497.00;4922158;28;47408;-63
2022/02/22 00:44:59;;;;;;;;;17.00;8.75;;;;;7.61;90.85;101490.03;4923451;28;45243;-65
2022/02/22 00:47:26;;;;;;;;;14.00;7.50;;;;;7.59;91.16;101497.03;4923900;28;45319;-69
2022/02/22 00:49:52;;;;;;;;;17.25;11.50;;;;;7.53;91.27;101486.63;4924009;28;45356;-63
2022/02/22 00:52:17;;;;;;;;;17.75;10.50;;;;;7.54;91.57;101488.38;4922246;28;48582;-64
2022/02/22 00:54:43;;;;;;;;;20.50;10.00;;;;;7.54;90.96;101486.59;4923727;28;45390;-63
2022/02/22 00:57:08;;;;;;;;;17.50;10.00;;;;;7.51;91.28;101499.75;4923798;28;45351;-68
2022/02/22 00:59:33;;;;;;;;;14.25;10.25;;;;;7.52;91.96;101503.22;4923929;28;45580;-67
2022/02/22 01:01:59;;;;;;;;;13.00;8.00;;;;;7.50;92.28;101494.53;4923256;28;45527;-65
2022/02/22 01:04:24;;;;;;;;;17.25;8.00;;;;;7.49;91.56;101500.66;4923359;28;45314;-68
2022/02/22 01:06:49;;;;;;;;;13.75;9.75;;;;;7.45;91.35;101494.56;4923601;28;45325;-64
2022/02/22 01:09:15;;;;;;;;;19.50;11.75;;;;;7.42;92.02;101492.00;4923514;28;45262;-70
2022/02/22 01:11:41;;;;;;;;;11.25;11.00;;;;;7.45;92.61;101500.69;4922861;28;45993;-69
2022/02/22 01:14:07;;;;;;;;;12.25;9.00;;;;;7.42;92.60;101499.84;4921881;28;45338;-70
2022/02/22 01:16:33;;;;;;;;;15.00;8.00;;;;;7.42;92.62;101503.34;4923439;28;45396;-69
2022/02/22 01:18:58;;;;;;;;;16.25;11.00;;;;;7.39;92.37;101507.75;4923902;28;45282;-69
2022/02/22 01:21:24;;;;;;;;;15.75;8.00;;;;;7.36;92.73;101516.47;4923464;28;45359;-67
2022/02/22 01:23:50;;;;;;;;;20.75;7.50;;;;;7.36;92.71;101516.47;4906499;28;45596;-69
2022/02/22 01:26:15;;;;;;;;;18.00;9.25;;;;;7.34;92.05;101530.50;4923255;28;45494;-68
2022/02/22 01:28:41;;;;;;;;;19.50;12.50;;;;;7.30;93.26;101514.81;4923671;28;45288;-70
2022/02/22 01:31:06;;;;;;;;;13.50;6.75;;;;;7.27;92.60;101512.25;4923067;28;46112;-69
2022/02/22 01:33:31;;;;;;;;;16.50;10.00;;;;;7.29;93.24;101514.81;4923352;28;45368;-69
2022/02/22 01:35:57;;;;;;;;;15.50;5.75;;;;;7.26;92.81;101507.88;4923448;28;45409;-70
2022/02/22 01:38:22;;;;;;;;;11.00;7.00;;;;;7.24;92.51;101512.28;4922319;28;45243;-67
2022/02/22 01:40:49;;;;;;;;;7.75;3.00;;;;;7.21;93.10;101519.28;4919692;28;46669;-64
2022/02/22 01:43:14;;;;;;;;;14.75;7.75;;;;;7.23;92.91;101517.50;4919732;28;45317;-65
2022/02/22 01:45:40;;;;;;;;;15.75;7.00;;;;;7.21;93.62;101524.50;4919554;28;45456;-65
2022/02/22 01:48:05;;;;;;;;;16.25;11.25;;;;;7.05;94.31;101503.75;4919921;28;45505;-59
2022/02/22 01:50:31;;;;;;;;;15.00;10.50;;;;;7.18;93.43;101517.56;4918334;28;45484;-66
2022/02/22 01:52:56;;;;;;;;;19.00;6.50;;;;;7.15;93.19;101512.38;4919983;28;45263;-69
2022/02/22 01:55:22;;;;;;;;;13.00;8.50;;;;;7.13;93.27;101517.63;4920536;28;45422;-67
2022/02/22 01:57:48;;;;;;;;;15.75;8.75;;;;;7.10;93.59;101506.34;4920230;28;45651;-63
2022/02/22 02:00:15;;;;;;;;;11.00;7.75;;;;;7.12;93.68;101509.81;4917844;28;46148;-70
2022/02/22 02:02:41;;;;;;;;;18.00;9.25;;;;;7.09;93.44;101517.69;4919484;28;45440;-64
2022/02/22 02:05:08;;;;;;;;;15.25;8.25;;;;;7.09;93.51;101528.16;4920324;28;45418;-61
2022/02/22 02:07:33;;;;;;;;;13.75;7.00;;;;;7.05;94.08;101514.22;4920042;28;45368;-63
2022/02/22 02:09:59;;;;;;;;;19.75;9.75;;;;;7.06;94.32;101520.31;4918164;28;46983;-65
2022/02/22 02:12:24;;;;;;;;;15.00;9.75;;;;;7.03;93.65;101518.59;4919606;28;45518;-69
2022/02/22 02:14:50;;;;;;;;;11.00;8.00;;;;;7.01;94.13;101522.97;4919557;28;45322;-66
2022/02/22 02:17:16;;;;;;;;;18.75;11.75;;;;;6.99;94.09;101524.75;4918064;28;45198;-68
2022/02/22 02:19:41;;;;;;;;;19.00;7.25;;;;;6.99;94.48;101524.75;4918781;28;46284;-67
2022/02/22 02:22:07;;;;;;;;;13.75;10.25;;;;;6.95;93.83;101523.94;4933717;28;45297;-62
2022/02/22 02:24:32;;;;;;;;;15.00;9.00;;;;;6.93;94.65;101520.47;4902506;28;45424;-65
2022/02/22 02:26:58;;;;;;;;;12.25;9.00;;;;;6.87;94.36;101526.59;4919265;28;45170;-67
2022/02/22 02:29:27;;;;;;;;;13.50;8.00;;;;;6.89;93.96;101536.19;4919175;28;45453;-65
2022/02/22 02:31:54;;;;;;;;;18.50;9.00;;;;;6.84;94.79;101538.81;4919600;28;45476;-64
2022/02/22 02:34:22;;;;;;;;;16.25;8.00;;;;;6.83;94.57;101548.44;4917947;28;45398;-67
2022/02/22 02:36:48;;;;;;;;;16.25;7.50;;;;;6.84;94.95;101533.59;4919246;28;45264;-67
2022/02/22 02:39:13;;;;;;;;;17.75;12.00;;;;;6.83;95.08;101543.19;4918786;28;46179;-67
2022/02/22 02:41:41;;;;;;;;;16.00;8.00;;;;;6.80;95.49;101538.00;4918734;28;45412;-68
2022/02/22 02:44:12;;;;;;;;;19.25;7.00;;;;;6.79;95.16;101535.38;4919128;28;45376;-64
2022/02/22 02:46:39;;;;;;;;;13.50;8.00;;;;;6.81;94.57;101550.19;4919069;28;45289;-67
2022/02/22 02:49:06;;;;;;;;;14.75;9.75;;;;;6.80;95.28;101542.34;4918458;28;46380;-66
2022/02/22 02:51:32;;;;;;;;;19.50;9.50;;;;;6.78;94.02;101552.84;4918491;28;45411;-66
2022/02/22 02:53:58;;;;;;;;;13.00;9.00;;;;;6.76;95.17;101559.81;4919126;28;45331;-65
2022/02/22 02:56:24;;;;;;;;;24.50;9.25;;;;;6.71;95.53;101561.63;4919551;28;45516;-65
2022/02/22 02:58:56;;;;;;;;;17.25;10.00;;;;;6.68;94.56;101564.25;4918811;28;46228;-65
2022/02/22 03:01:21;;;;;;;;;16.00;9.75;;;;;6.64;94.73;101565.16;4918471;28;45457;-65
2022/02/22 03:03:47;;;;;;;;;17.25;10.25;;;;;6.62;94.47;101577.38;4918939;28;45346;-62
2022/02/22 03:06:12;;;;;;;;;13.75;8.25;;;;;6.53;94.82;101566.13;4918875;28;45693;-64
2022/02/22 03:08:38;;;;;;;;;19.25;9.75;;;;;6.53;95.19;101570.47;4918485;28;45971;-65
2022/02/22 03:11:03;;;;;;;;;15.50;8.25;;;;;6.54;95.22;101578.31;4933007;28;45467;-62
2022/02/22 03:13:29;;;;;;;;;26.50;10.00;;;;;6.52;95.24;101577.44;4918568;28;45581;-62
2022/02/22 03:15:54;;;;;;;;;10.00;4.75;;;;;6.47;95.37;101565.28;4919178;28;45369;-62
2022/02/22 03:18:19;;;;;;;;;17.75;9.75;;;;;6.48;95.73;101565.28;4933033;28;46113;-63
2022/02/22 03:20:45;;;;;;;;;17.25;9.75;;;;;6.49;95.91;101566.13;4918361;28;45240;-67
2022/02/22 03:23:10;;;;;;;;;15.75;10.00;;;;;6.52;95.59;101573.94;4918533;28;45224;-66
2022/02/22 03:25:35;;;;;;;;;17.50;10.00;;;;;6.53;96.06;101568.72;4918570;28;45715;-65
2022/02/22 03:28:04;;;;;;;;;20.50;10.75;;;;;6.56;95.73;101570.44;4918174;28;45383;-64
2022/02/22 03:30:32;;;;;;;;;14.50;9.25;;;;;6.55;95.30;101566.97;4918259;28;45451;-65
2022/02/22 03:33:00;;;;;;;;;22.00;9.50;;;;;6.55;95.68;101569.59;4933327;28;45485;-64
2022/02/22 03:35:26;;;;;;;;;16.75;10.00;;;;;6.52;95.09;101577.44;4918749;28;45516;-67
2022/02/22 03:37:52;;;;;;;;;21.25;9.50;;;;;6.49;95.04;101573.97;4918207;28;46510;-65
2022/02/22 03:40:17;;;;;;;;;19.00;9.25;;;;;6.45;95.17;101560.06;4932782;28;45249;-63
2022/02/22 03:42:44;;;;;;;;;19.25;11.50;;;;;6.51;96.01;101573.09;4918475;28;45251;-67
2022/02/22 03:45:12;;;;;;;;;19.50;9.50;;;;;6.52;95.83;101576.56;4918286;28;45490;-66
2022/02/22 03:47:38;;;;;;;;;22.25;12.50;;;;;6.57;95.40;101573.06;4917834;28;46242;-68
2022/02/22 03:50:04;;;;;;;;;19.50;12.25;;;;;6.54;96.24;101562.63;4917945;28;45506;-68
2022/02/22 03:52:30;;;;;;;;;11.00;6.75;;;;;6.50;95.75;101541.72;4918491;28;45326;-65
2022/02/22 03:54:56;;;;;;;;;25.00;10.00;;;;;6.64;96.63;101563.41;4918553;28;45238;-67
2022/02/22 03:57:21;;;;;;;;;13.00;7.50;;;;;6.69;95.53;101571.22;4917923;28;46514;-59
2022/02/22 03:59:47;;;;;;;;;16.00;10.25;;;;;6.71;95.80;101566.84;4918167;28;45267;-60
2022/02/22 04:02:12;;;;;;;;;16.00;10.00;;;;;6.70;95.74;101565.97;4917200;28;45418;-64
2022/02/22 04:04:37;;;;;;;;;23.75;10.50;;;;;6.70;95.65;101558.13;4918157;28;45706;-65
2022/02/22 04:07:03;;;;;;;;;15.25;11.00;;;;;6.79;95.68;101564.16;4917828;28;46276;-62
2022/02/22 04:09:28;;;;;;;;;21.00;10.75;;;;;6.80;95.58;101560.66;4917726;28;45224;-65
2022/02/22 04:11:57;;;;;;;;;14.75;11.25;;;;;6.83;94.96;101553.66;4917426;28;45373;-65
2022/02/22 04:14:22;;;;;;;;;19.75;11.25;;;;;6.90;95.37;101562.34;4918229;28;45259;-74
2022/02/22 04:16:48;;;;;;;;;17.00;10.25;;;;;6.94;95.38;101564.03;4919930;28;45969;-70
2022/02/22 04:19:13;;;;;;;;;18.25;7.25;;;;;6.94;95.11;101558.81;4920177;28;45299;-71
2022/02/22 04:21:39;;;;;;;;;21.75;9.00;;;;;7.01;94.87;101568.34;4919676;28;45380;-73
2022/02/22 04:24:05;;;;;;;;;14.50;8.00;;;;;7.05;94.63;101557.84;4918888;28;45351;-69
2022/02/22 04:26:30;;;;;;;;;14.75;10.00;;;;;7.07;93.85;101572.63;4920192;28;45306;-67
2022/02/22 04:29:00;;;;;;;;;29.00;11.75;;;;;7.07;93.77;101570.00;4918866;28;45427;-69
2022/02/22 04:31:29;;;;;;;;;16.75;9.00;;;;;7.10;93.96;101584.81;4918663;28;45329;-74
2022/02/22 04:33:55;;;;;;;;;17.75;8.50;;;;;7.11;94.18;101589.19;4919837;28;45466;-71
2022/02/22 04:36:20;;;;;;;;;18.25;11.75;;;;;7.13;94.05;101582.19;4918388;28;46818;-73
2022/02/22 04:38:46;;;;;;;;;26.50;17.25;;;;;7.19;93.61;101589.09;4919316;28;45251;-66
2022/02/22 04:41:12;;;;;;;;;14.75;8.75;;;;;7.20;93.24;101585.59;4919467;28;45387;-68
2022/02/22 04:43:37;;;;;;;;;17.00;8.75;;;;;7.20;93.15;101569.88;4919466;28;45288;-75
2022/02/22 04:46:03;;;;;;;;;13.00;10.25;;;;;7.24;94.11;101574.19;4918486;28;47918;-68
2022/02/22 04:48:28;;;;;;;;;19.50;9.75;;;;;7.26;93.77;101561.97;4920263;28;45350;-76
2022/02/22 04:50:53;;;;;;;;;17.00;7.75;;;;;7.29;93.85;101575.03;4918572;28;45294;-76
2022/02/22 04:53:19;;;;;;;;;19.50;12.75;;;;;7.32;94.09;101582.84;4918474;28;45295;-77
2022/02/22 04:55:44;;;;;;;;;16.75;9.50;;;;;7.36;93.19;101583.69;4917854;28;45383;-72
2022/02/22 04:58:10;;;;;;;;;19.25;10.25;;;;;7.38;92.50;101577.53;4917198;28;45396;-77
2022/02/22 05:00:35;;;;;;;;;19.00;11.00;;;;;7.39;93.09;101589.75;4932161;28;45524;-76
2022/02/22 05:03:01;;;;;;;;;18.25;9.00;;;;;7.39;92.86;101594.97;4916645;28;45561;-76
2022/02/22 05:05:26;;;;;;;;;14.50;9.00;;;;;7.39;93.09;101594.97;4917388;28;47198;-77
2022/02/22 05:07:52;;;;;;;;;15.75;12.50;;;;;7.39;92.93;101592.34;4917780;28;45345;-73
2022/02/22 05:10:17;;;;;;;;;20.25;10.25;;;;;7.38;92.31;101602.88;4918307;28;45497;-76
2022/02/22 05:12:43;;;;;;;;;19.50;10.00;;;;;7.33;93.07;101587.19;4918884;28;45603;-71
2022/02/22 05:15:09;;;;;;;;;17.00;9.25;;;;;7.28;92.09;101599.47;4921106;28;45542;-75
2022/02/22 05:17:34;;;;;;;;;24.50;10.25;;;;;7.22;93.44;101587.31;4921857;28;45302;-65
2022/02/22 05:19:59;;;;;;;;;12.25;11.00;;;;;7.18;92.82;101587.34;4921554;28;45648;-75
2022/02/22 05:22:25;;;;;;;;;15.00;11.00;;;;;7.14;93.56;101584.75;4921423;28;45207;-73
2022/02/22 05:24:50;;;;;;;;;21.25;10.00;;;;;7.16;92.98;101577.75;4922170;28;45238;-76
2022/02/22 05:27:16;;;;;;;;;13.75;9.00;;;;;7.22;93.33;101584.69;4926099;28;45340;-67
2022/02/22 05:29:41;;;;;;;;;13.50;10.00;;;;;7.23;92.81;101586.44;4929988;28;45477;-67
2022/02/22 05:32:07;;;;;;;;;16.50;9.25;;;;;7.19;92.51;101573.38;4931506;28;45626;-66
2022/02/22 05:34:36;;;;;;;;;13.00;9.50;;;;;7.20;93.08;101580.34;4928004;28;46468;-72
2022/02/22 05:37:03;;;;;;;;;13.25;9.75;;;;;7.25;92.67;101581.16;4921350;28;45351;-79
2022/02/22 05:39:29;;;;;;;;;10.00;6.75;;;;;7.29;92.51;101588.09;4920813;28;45386;-76
2022/02/22 05:41:55;;;;;;;;;19.50;11.00;;;;;7.33;92.54;101583.72;4920170;28;45255;-67
2022/02/22 05:44:21;;;;;;;;;19.50;9.75;;;;;7.34;91.59;101582.84;4934490;28;46445;-68
2022/02/22 05:46:46;;;;;;;;;22.00;12.00;;;;;7.42;91.58;101592.34;4919042;28;45306;-67
2022/02/22 05:49:12;;;;;;;;;11.25;9.25;;;;;7.46;91.35;101593.19;4920970;28;45338;-70
2022/02/22 05:51:37;;;;;;;;;20.00;11.75;;;;;7.47;91.35;101589.66;4921351;28;45591;-63
2022/02/22 05:54:02;;;;;;;;;15.75;10.25;;;;;7.48;91.38;101596.63;4926593;28;46442;-64
2022/02/22 05:56:28;;;;;;;;;15.00;9.75;;;;;7.50;90.82;101584.41;4939788;28;45331;-63
2022/02/22 05:58:53;;;;;;;;;21.75;11.00;;;;;7.51;91.43;101577.44;4941316;28;45338;-58
2022/02/22 06:01:18;;;;;;;;;16.50;9.00;;;;;7.51;91.28;101580.03;4940650;28;45227;-64
2022/02/22 06:03:44;;;;;;;;;12.50;5.50;;;;;7.49;90.94;101566.97;4936869;28;46803;-66
2022/02/22 06:06:09;;;;;;;;;20.75;9.00;;;;;7.47;90.91;101566.09;4937985;28;45293;-69
2022/02/22 06:08:35;;;;;;;;;21.25;10.00;;;;;7.45;91.16;101566.16;4937943;28;45614;-64
2022/02/22 06:11:00;;;;;;;;;15.75;8.00;;;;;7.45;90.87;101570.50;4938231;28;45361;-70
2022/02/22 06:13:26;;;;;;;;;15.25;10.25;;;;;7.43;90.77;101561.78;4939205;28;45427;-69
2022/02/22 06:15:51;;;;;;;;;18.25;13.50;;;;;7.41;91.25;101551.31;4939962;28;45402;-66
2022/02/22 06:18:16;;;;;;;;;21.50;13.00;;;;;7.47;91.63;101560.03;4939996;28;45415;-77
2022/02/22 06:20:43;;;;;;;;;20.00;12.75;;;;;7.49;92.32;101569.56;4939444;28;45348;-73
2022/02/22 06:23:09;;;;;;;;;16.25;9.75;;;;;7.49;91.25;101556.50;4937359;28;46205;-64
2022/02/22 06:25:34;;;;;;;;;17.75;13.25;;;;;7.48;92.54;101559.13;4937079;28;45275;-78
2022/02/22 06:27:59;;;;;;;;;17.75;9.00;;;;;7.50;92.41;101573.06;4939529;28;45768;-62
2022/02/22 06:30:26;;;;;;;;;18.25;10.25;;;;;7.53;92.21;101575.66;4939207;28;45548;-67
2022/02/22 06:32:52;;;;;;;;;18.00;11.25;;;;;7.52;91.56;101568.69;4939550;28;45605;-69
2022/02/22 06:35:19;;;;;;;;;17.25;9.25;;;;;7.53;91.71;101580.91;4938183;28;45672;-65
2022/02/22 06:37:44;;;;;;;;;12.50;9.75;;;;;7.54;92.21;101585.25;4940077;28;45470;-74
2022/02/22 06:40:10;;;;;;;;;13.75;11.25;;;;;7.55;91.81;101576.50;4940944;28;45347;-75
2022/02/22 06:42:37;;;;;;;;;22.25;11.50;;;;;7.55;91.69;101576.50;4943469;28;48313;-74
2022/02/22 06:45:05;;;;;;;;;17.50;13.50;;;;;7.56;92.24;101570.38;4939337;28;45376;-77
2022/02/22 06:47:30;;;;;;;;;12.00;10.75;;;;;7.61;91.43;101581.66;4940811;28;44845;-73
2022/02/22 06:49:56;;;;;;;;;22.50;9.00;;;;;7.62;91.22;101582.53;4940172;28;45197;-75
2022/02/22 06:52:21;;;;;;;;;21.50;12.75;;;;;7.61;91.40;101579.06;4940887;28;46529;-65
2022/02/22 06:54:47;;;;;;;;;15.00;11.25;;;;;7.62;91.87;101582.53;4944551;28;45257;-72
2022/02/22 06:57:13;;;;;;;;;34.00;12.75;;;;;7.62;91.26;101586.03;4947770;28;45281;-76
2022/02/22 06:59:39;;;;;;;;;17.50;9.50;;;;;7.65;92.14;101583.38;4944695;28;45446;-73
2022/02/22 07:02:05;;;;;;;;;18.50;10.00;;;;;7.69;91.67;101578.94;4940496;28;46121;-77
2022/02/22 07:04:30;;;;;;;;;16.50;10.75;;;;;7.75;92.33;101584.09;4939046;28;45543;-76
2022/02/22 07:07:01;;;;;;;;;28.50;11.50;;;;;7.80;91.24;101586.69;4940370;28;45386;-77
2022/02/22 07:09:27;;;;;;;;;22.75;10.50;;;;;7.84;90.53;101591.00;4944982;28;45401;-75
2022/02/22 07:11:52;;;;;;;;;19.50;10.25;;;;;7.84;90.96;101584.00;4946155;28;45380;-67
2022/02/22 07:14:18;;;;;;;;;16.00;8.50;;;;;7.83;91.22;101586.66;4946285;28;45139;-75
2022/02/22 07:16:43;;;;;;;;;18.00;10.50;;;;;7.81;90.53;101577.94;4942744;28;45299;-75
2022/02/22 07:19:08;;;;;;;;;18.75;10.25;;;;;7.90;90.76;101590.91;4939339;28;45558;-76
2022/02/22 07:21:34;;;;;;;;;12.50;9.50;;;;;7.88;90.85;101583.06;4941638;28;46179;-76
2022/02/22 07:23:59;;;;;;;;;18.50;11.75;;;;;7.89;90.40;101586.56;4938925;28;45290;-74
2022/02/22 07:26:24;;;;;;;;;15.50;11.50;;;;;7.93;90.28;101587.38;4944407;28;45442;-78
2022/02/22 07:28:50;;;;;;;;;14.50;12.00;;;;;7.95;90.56;101576.00;4946171;28;45500;-78
2022/02/22 07:31:15;;;;;;;;;19.00;9.50;;;;;8.00;90.52;101586.44;4940505;28;46030;-79
2022/02/22 07:33:41;;;;;;;;;8.75;8.50;;;;;8.02;90.83;101569.78;4939679;28;45376;-58
2022/02/22 07:36:07;;;;;;;;;18.25;9.25;;;;;8.10;90.58;101580.19;4937114;28;45307;-72
2022/02/22 07:38:33;;;;;;;;;19.50;12.75;;;;;8.16;90.22;101589.69;4938361;28;45360;-73
2022/02/22 07:40:59;;;;;;;;;17.25;9.50;;;;;8.19;89.35;101594.91;4938208;28;46086;-73
2022/02/22 07:43:25;;;;;;;;;20.00;12.25;;;;;8.19;89.47;101587.91;4939532;28;45747;-76
2022/02/22 07:45:50;;;;;;;;;22.50;10.75;;;;;8.21;88.97;101584.41;4941939;28;45346;-63
2022/02/22 07:48:15;;;;;;;;;19.25;11.25;;;;;8.22;89.11;101597.47;4939121;28;45295;-74
2022/02/22 07:50:41;;;;;;;;;14.00;10.25;;;;;8.24;89.42;101587.84;4938166;28;46593;-66
2022/02/22 07:53:06;;;;;;;;;20.50;9.75;;;;;8.29;89.11;101580.78;4936656;28;46126;-73
2022/02/22 07:55:32;;;;;;;;;16.25;10.00;;;;;8.34;88.49;101585.97;4936613;28;45254;-75
2022/02/22 07:57:57;;;;;;;;;18.25;10.25;;;;;8.37;88.41;101585.91;4937878;28;45264;-67
2022/02/22 08:00:22;;;;;;;;;15.50;9.75;;;;;8.40;88.03;101590.22;4937439;28;45678;-69
2022/02/22 08:02:48;;;;;;;;;15.75;11.00;;;;;8.39;88.36;101583.25;4937732;28;45406;-73
2022/02/22 08:05:14;;;;;;;;;22.75;12.50;;;;;8.41;88.41;101578.84;4940239;28;45166;-73
2022/02/22 08:07:39;;;;;;;;;14.00;7.50;;;;;8.47;88.64;101578.75;4939607;28;45492;-77
2022/02/22 08:10:06;;;;;;;;;23.00;12.50;;;;;8.53;88.62;101575.22;4939606;28;45315;-75
2022/02/22 08:12:32;;;;;;;;;26.50;14.25;;;;;8.61;88.51;101575.97;4943325;28;45272;-70
2022/02/22 08:14:57;;;;;;;;;10.00;9.00;;;;;8.61;88.28;101582.09;4942313;28;45586;-76
2022/02/22 08:17:23;;;;;;;;;16.25;13.25;;;;;8.62;89.17;101575.06;4938296;28;45294;-70
2022/02/22 08:19:48;;;;;;;;;25.50;13.00;;;;;8.69;89.29;101568.00;4939742;28;46138;-64
2022/02/22 08:22:13;;;;;;;;;14.75;10.00;;;;;8.75;87.96;101563.50;4942926;28;45425;-70
2022/02/22 08:24:39;;;;;;;;;12.25;8.75;;;;;8.76;88.30;101567.84;4949358;28;45292;-75
2022/02/22 08:27:04;;;;;;;;;15.00;8.75;;;;;8.73;88.54;101564.41;4950111;28;45263;-77
2022/02/22 08:29:31;;;;;;;;;16.50;10.50;;;;;8.74;88.39;101576.66;4941486;28;46060;-80
2022/02/22 08:31:57;;;;;;;;;21.50;11.50;;;;;8.77;88.72;101580.06;4938431;28;45263;-76
2022/02/22 08:34:22;;;;;;;;;14.00;9.75;;;;;8.74;88.39;101582.75;4938664;28;45348;-80
2022/02/22 08:36:48;;;;;;;;;22.50;16.75;;;;;8.74;88.73;101580.13;4938424;28;45309;-80
2022/02/22 08:39:14;;;;;;;;;19.75;13.75;;;;;8.79;88.86;101580.06;4936372;28;47257;-76
2022/02/22 08:41:39;;;;;;;;;19.25;10.50;;;;;8.83;88.61;101576.50;4937564;28;45164;-66
2022/02/22 08:44:05;;;;;;;;;23.00;13.25;;;;;8.89;88.95;101573.75;4937754;28;45326;-65
2022/02/22 08:46:31;;;;;;;;;22.25;11.75;;;;;8.94;88.03;101568.41;4938300;28;45512;-75
2022/02/22 08:48:57;;;;;;;;;18.50;10.75;;;;;8.95;88.01;101559.66;4942007;28;45387;-77
2022/02/22 08:51:22;;;;;;;;;17.25;11.25;;;;;8.99;87.55;101565.72;4948698;28;45373;-77
2022/02/22 08:53:48;;;;;;;;;20.00;12.00;;;;;8.98;88.12;101548.25;4949733;28;44795;-77
2022/02/22 08:56:14;;;;;;;;;17.75;8.50;;;;;9.09;87.68;101559.41;4948125;28;45669;-75
2022/02/22 08:58:40;;;;;;;;;19.75;11.00;;;;;9.14;87.80;101549.69;4948085;28;46651;-79
2022/02/22 09:01:06;;;;;;;;;19.75;11.00;;;;;9.20;88.00;101556.59;4947305;28;45191;-70
2022/02/22 09:03:32;;;;;;;;;21.50;12.25;;;;;9.26;87.85;101556.50;4941330;28;45240;-77
2022/02/22 09:05:59;;;;;;;;;14.25;8.75;;;;;9.31;87.33;101554.63;4941817;28;45357;-71
2022/02/22 09:08:25;;;;;;;;;13.50;10.25;;;;;9.32;87.19;101555.50;4942921;28;45762;-76
2022/02/22 09:10:50;;;;;;;;;19.75;12.00;;;;;9.31;87.25;101566.88;4943717;28;45330;-78
2022/02/22 09:13:16;;;;;;;;;14.75;7.50;;;;;9.27;88.08;101555.59;4943861;28;45494;-73
2022/02/22 09:15:43;;;;;;;;;17.25;10.50;;;;;9.25;88.71;101551.25;4942604;28;45535;-76
2022/02/22 09:18:09;;;;;;;;;15.50;9.75;;;;;9.17;89.36;101533.88;4941241;28;47009;-75
2022/02/22 09:20:34;;;;;;;;;17.50;11.25;;;;;9.16;90.29;101542.66;4940365;28;45448;-70
2022/02/22 09:23:00;;;;;;;;;18.00;8.25;;;;;9.17;90.58;101531.25;4940585;28;45369;-72
2022/02/22 09:25:32;;;;;;;;;15.00;10.50;;;;;9.18;90.87;101540.88;4942182;28;45527;-70
2022/02/22 09:27:58;;;;;;;;;14.75;11.00;;;;;9.23;90.51;101547.78;4940387;28;45678;-78
2022/02/22 09:30:23;;;;;;;;;19.50;15.75;;;;;9.27;90.61;101545.09;4940081;28;45250;-78
2022/02/22 09:32:50;;;;;;;;;23.75;13.00;;;;;9.31;90.83;101541.50;4940536;28;45365;-78
2022/02/22 09:35:17;;;;;;;;;19.75;13.50;;;;;9.32;90.93;101539.72;4924290;28;45643;-77
2022/02/22 09:37:43;;;;;;;;;18.00;11.00;;;;;9.33;90.66;101544.09;4940467;28;45311;-72
2022/02/22 09:40:10;;;;;;;;;15.00;12.25;;;;;9.37;90.51;101545.75;4939551;28;45331;-79
2022/02/22 09:42:35;;;;;;;;;18.25;14.00;;;;;9.40;90.68;101536.97;4941744;28;45455;-78
2022/02/22 09:45:05;;;;;;;;;15.75;13.75;;;;;9.42;90.59;101525.53;4946428;28;45522;-76
2022/02/22 09:47:30;;;;;;;;;15.50;9.25;;;;;9.57;90.15;101534.88;4943614;28;45458;-78
2022/02/22 09:49:57;;;;;;;;;21.25;8.50;;;;;9.64;90.34;101530.38;4941411;28;45294;-77
2022/02/22 09:52:22;;;;;;;;;15.00;9.00;;;;;9.68;89.56;101510.13;4940412;28;45398;-67
2022/02/22 09:54:48;;;;;;;;;15.25;9.50;;;;;9.76;89.12;101501.19;4940364;28;45862;-62
2022/02/22 09:57:13;;;;;;;;;14.00;8.50;;;;;9.84;88.71;101501.00;4940835;28;46181;-77
2022/02/22 09:59:39;;;;;;;;;12.75;7.75;;;;;9.94;89.14;101494.63;4939390;28;45331;-75
2022/02/22 10:02:05;;;;;;;;;12.75;9.25;;;;;10.11;88.87;101484.66;4940430;28;45208;-77
2022/02/22 10:04:41;;;;;;;;;13.75;8.50;;;;;10.22;89.04;101474.72;4940637;28;45444;-81
2022/02/22 10:07:07;;;;;;;;;10.75;10.25;;;;;10.42;88.50;101486.56;4939584;28;46304;-73
2022/02/22 10:09:32;;;;;;;;;14.25;7.00;;;;;10.56;87.81;101471.28;4942501;28;45479;-74
2022/02/22 10:11:58;;;;;;;;;16.25;10.00;;;;;10.60;87.39;101466.81;4940407;28;45360;-78
2022/02/22 10:14:29;;;;;;;;;21.25;9.50;;;;;10.66;87.68;101466.66;4943613;28;45375;-80
2022/02/22 10:16:57;;;;;;;;;10.50;6.00;;;;;10.85;87.08;101460.91;4940204;28;45665;-73
2022/02/22 10:19:26;;;;;;;;;10.25;5.25;;;;;10.95;85.34;101457.09;4940390;28;45484;-76
2022/02/22 10:21:55;;;;;;;;;9.50;6.75;;;;;11.03;85.21;101465.66;4940072;28;45212;-70
2022/02/22 10:24:22;;;;;;;;;8.75;6.50;;;;;11.04;85.86;101466.53;4940392;28;45521;-76
2022/02/22 10:26:48;;;;;;;;;11.25;8.00;;;;;11.05;85.36;101487.53;4940344;28;46244;-80
2022/02/22 10:29:21;;;;;;;;;10.25;9.50;;;;;11.03;85.57;101470.91;4942893;28;45255;-76
2022/02/22 10:31:47;;;;;;;;;8.50;7.25;;;;;11.01;85.23;101485.03;4951843;28;45398;-80
2022/02/22 10:34:14;;;;;;;;;12.00;7.25;;;;;10.93;85.15;101503.66;4947217;28;44887;-80
2022/02/22 10:36:42;;;;;;;;;11.25;7.50;;;;;10.90;85.13;101506.38;4943084;28;47104;-70
2022/02/22 10:39:10;;;;;;;;;11.00;7.75;;;;;10.89;85.33;101516.06;4943752;28;45263;-79
2022/02/22 10:41:41;;;;;;;;;10.25;7.00;;;;;10.95;85.41;101517.66;4942099;28;45352;-78
2022/02/22 10:44:08;;;;;;;;;15.50;12.25;;;;;10.95;85.58;101523.78;4941070;28;45244;-78
2022/02/22 10:46:37;;;;;;;;;12.75;8.75;;;;;10.91;84.76;101524.78;4941348;28;45700;-71
2022/02/22 10:49:06;;;;;;;;;10.50;5.75;;;;;10.84;85.64;101532.88;4942241;28;45282;-66
2022/02/22 10:51:40;;;;;;;;;8.25;5.25;;;;;10.78;85.25;101518.97;4943165;28;45457;-79
2022/02/22 10:54:07;;;;;;;;;13.00;6.75;;;;;10.72;86.07;101521.75;4942156;28;45279;-82
2022/02/22 10:56:33;;;;;;;;;5.50;5.00;;;;;10.68;86.22;101511.38;4939559;28;46892;-76
2022/02/22 10:58:59;;;;;;;;;9.25;6.75;;;;;10.66;86.13;101509.63;4941696;28;45359;-77
2022/02/22 11:01:26;;;;;;;;;10.50;4.75;;;;;10.66;86.43;101499.13;4941726;28;45349;-80
2022/02/22 11:03:52;;;;;;;;;12.25;9.00;;;;;10.64;86.98;101514.06;4942286;28;45405;-69
2022/02/22 11:06:19;;;;;;;;;11.75;8.25;;;;;10.65;87.77;101521.06;4941351;28;47295;-75
2022/02/22 11:08:47;;;;;;;;;36.25;29.00;;;;;10.66;88.44;101517.53;4940982;28;45510;-71
2022/02/22 11:11:22;;;;;;;;;11.75;7.00;;;;;10.68;88.77;101519.25;4943431;28;45231;-71
2022/02/22 11:14:00;;;;;;;;;18.00;15.25;;;;;10.68;88.90;101511.38;4942583;28;45421;-79
2022/02/22 11:16:26;;;;;;;;;17.25;10.25;;;;;10.72;89.63;101505.97;4946289;28;46412;-73